createdAt,value
2022-08-04T00:01:32.660Z,32.6
2022-08-04T00:06:33.007Z,32.6
2022-08-04T00:11:33.201Z,32.5
2022-08-04T00:16:34.826Z,32.5
2022-08-04T00:21:38.953Z,32.4
2022-08-04T00:26:39.457Z,32.4
2022-08-04T00:31:54.007Z,32.4
2022-08-04T00:36:57.104Z,32.4
2022-08-04T00:41:57.291Z,32.3
2022-08-04T00:46:57.495Z,32.3
2022-08-04T00:52:31.007Z,32.2
2022-08-04T00:57:34.342Z,32.2
2022-08-04T01:02:35.231Z,32.2
2022-08-04T01:07:35.391Z,32.2
2022-08-04T01:12:35.585Z,32.2
2022-08-04T01:17:35.751Z,32.1
2022-08-04T01:22:35.947Z,32.1
2022-08-04T01:27:37.937Z,32.1
2022-08-04T01:32:42.779Z,32.1
2022-08-04T01:37:42.938Z,32.1
2022-08-04T01:42:43.112Z,32
2022-08-04T01:47:43.315Z,32
2022-08-04T01:52:46.486Z,31.9
2022-08-04T01:57:49.500Z,31.9
2022-08-04T02:02:51.393Z,31.9
2022-08-04T02:07:53.363Z,31.9
2022-08-04T02:12:55.387Z,31.9
2022-08-04T02:17:57.220Z,31.9
2022-08-04T02:22:59.012Z,31.8
2022-08-04T02:28:01.120Z,31.8
2022-08-04T02:33:03.059Z,31.8
2022-08-04T02:38:04.888Z,31.8
2022-08-04T02:43:06.690Z,31.8
2022-08-04T02:48:29.725Z,31.8
2022-08-04T02:53:32.071Z,31.7
2022-08-04T02:58:33.865Z,31.7
2022-08-04T03:03:35.655Z,31.7
2022-08-04T03:08:37.473Z,31.6
2022-08-04T03:13:39.297Z,31.6
2022-08-04T03:18:41.080Z,31.6
2022-08-04T03:23:42.893Z,31.6
2022-08-04T03:28:44.718Z,31.6
2022-08-04T03:33:46.539Z,31.6
2022-08-04T03:38:55.761Z,31.5
2022-08-04T03:43:59.935Z,31.5
2022-08-04T03:49:01.914Z,31.5
2022-08-04T03:54:03.739Z,31.5
2022-08-04T03:59:05.510Z,31.4
2022-08-04T04:04:07.294Z,31.4
2022-08-04T04:09:16.103Z,31.4
2022-08-04T04:14:18.231Z,31.4
2022-08-04T04:19:20.027Z,31.4
2022-08-04T04:24:21.813Z,31.4
2022-08-04T04:29:23.618Z,31.4
2022-08-04T04:34:25.404Z,31.4
2022-08-04T04:39:27.221Z,31.3
2022-08-04T04:44:30.778Z,31.3
2022-08-04T04:49:32.834Z,31.3
2022-08-04T04:54:34.856Z,31.2
2022-08-04T04:59:36.920Z,31.2
2022-08-04T05:04:38.715Z,31.2
2022-08-04T05:09:40.496Z,31.2
2022-08-04T05:14:42.292Z,31.2
2022-08-04T05:19:44.038Z,31.2
2022-08-04T05:24:48.136Z,31.2
2022-08-04T05:29:49.919Z,31.2
2022-08-04T05:34:51.710Z,31.2
2022-08-04T05:39:52.931Z,31.1
2022-08-04T05:44:54.718Z,31.1
2022-08-04T05:50:01.785Z,31.1
2022-08-04T05:55:04.224Z,31.1
2022-08-04T06:00:19.710Z,31.1
2022-08-04T06:05:33.536Z,31.1
2022-08-04T06:10:35.297Z,31.1
2022-08-04T06:15:37.083Z,31.1
2022-08-04T06:20:46.368Z,31.1
2022-08-04T06:25:52.285Z,31.1
2022-08-04T06:30:54.080Z,31
2022-08-04T06:35:55.090Z,31
2022-08-04T06:40:56.926Z,30.3
2022-08-04T06:45:58.742Z,30.1
2022-08-04T06:51:23.842Z,30.1
2022-08-04T06:56:36.146Z,30
2022-08-04T07:01:37.992Z,30
2022-08-04T07:06:38.312Z,30
2022-08-04T07:11:44.502Z,30
2022-08-04T07:16:46.904Z,30
2022-08-04T07:22:16.509Z,29.9
2022-08-04T07:27:47.159Z,29.9
2022-08-04T07:32:49.639Z,29.9
2022-08-04T07:37:51.439Z,29.9
2022-08-04T07:42:53.254Z,29.9
2022-08-04T07:48:04.172Z,29.9
2022-08-04T07:53:52.749Z,29.9
2022-08-04T07:58:54.558Z,29.9
2022-08-04T08:03:56.395Z,29.9
2022-08-04T08:08:58.210Z,29.9
2022-08-04T08:14:00.004Z,29.9
2022-08-04T08:19:02.036Z,29.9
2022-08-04T08:24:03.030Z,29.8
2022-08-04T08:29:04.838Z,29.8
2022-08-04T08:34:06.620Z,29.8
2022-08-04T08:39:08.455Z,29.8
2022-08-04T08:44:10.286Z,29.8
2022-08-04T08:50:01.299Z,29.8
2022-08-04T08:55:05.530Z,29.7
2022-08-04T09:00:07.337Z,29.8
2022-08-04T09:05:09.370Z,29.7
2022-08-04T09:10:10.365Z,29.7
2022-08-04T09:15:12.167Z,29.7
2022-08-04T09:20:13.943Z,29.7
2022-08-04T09:25:15.943Z,29.7
2022-08-04T09:30:17.787Z,29.7
2022-08-04T09:35:19.551Z,29.7
2022-08-04T09:40:29.073Z,29.6
2022-08-04T09:45:42.810Z,29.6
2022-08-04T09:50:50.183Z,29.6
2022-08-04T09:55:54.193Z,29.6
2022-08-04T10:00:56.772Z,29.6
2022-08-04T10:05:58.587Z,29.6
2022-08-04T10:11:00.406Z,29.6
2022-08-04T10:16:02.184Z,29.6
2022-08-04T10:21:09.082Z,29.6
2022-08-04T10:26:13.454Z,29.6
2022-08-04T10:31:15.300Z,29.6
2022-08-04T10:36:17.147Z,29.6
2022-08-04T10:41:18.964Z,29.6
2022-08-04T10:46:20.776Z,29.6
2022-08-04T10:51:21.777Z,29.6
2022-08-04T10:56:23.882Z,29.6
2022-08-04T11:01:51.213Z,29.6
2022-08-04T11:07:04.735Z,29.6
2022-08-04T11:12:06.794Z,29.6
2022-08-04T11:17:08.596Z,29.6
2022-08-04T11:22:10.398Z,29.6
2022-08-04T11:27:12.184Z,29.5
2022-08-04T11:32:13.963Z,29.5
2022-08-04T11:37:15.875Z,29.5
2022-08-04T11:42:17.766Z,29.6
2022-08-04T11:47:19.738Z,29.5
2022-08-04T11:52:22.009Z,29.5
2022-08-04T11:57:24.127Z,29.5
2022-08-04T12:02:38.259Z,29.5
2022-08-04T12:07:41.582Z,29.5
2022-08-04T12:12:43.725Z,29.5
2022-08-04T12:17:52.905Z,29.5
2022-08-04T12:22:55.360Z,29.5
2022-08-04T12:27:57.778Z,29.5
2022-08-04T12:32:59.556Z,29.4
2022-08-04T12:38:01.360Z,29.5
2022-08-04T12:43:03.133Z,29.5
2022-08-04T12:48:04.953Z,29.4
2022-08-04T12:53:06.745Z,29.4
2022-08-04T12:58:08.530Z,29.4
2022-08-04T13:03:10.620Z,29.4
2022-08-04T13:08:12.538Z,29.4
2022-08-04T13:13:14.354Z,29.4
2022-08-04T13:18:16.148Z,29.4
2022-08-04T13:23:21.617Z,31.1
2022-08-04T13:35:27.987Z,36.5
2022-08-04T13:40:55.603Z,38.2
2022-08-04T13:45:55.990Z,38.9
2022-08-04T13:50:56.620Z,39.1
2022-08-04T13:56:00.114Z,38.7
2022-08-04T14:01:00.926Z,38.5
2022-08-04T14:06:01.468Z,38.4
2022-08-04T14:11:01.895Z,38.4
2022-08-04T14:16:04.205Z,38.4
2022-08-04T14:21:04.911Z,38.4
2022-08-04T14:26:05.305Z,38.4
2022-08-04T14:31:05.677Z,38.4
2022-08-04T14:36:06.126Z,38.4
2022-08-04T14:41:15.131Z,38.4
2022-08-04T14:46:15.515Z,38.3
2022-08-04T14:51:16.133Z,38.3
2022-08-04T14:56:30.947Z,38.3
2022-08-04T15:01:45.606Z,38.3
2022-08-04T15:07:01.038Z,38.2
2022-08-04T15:12:05.191Z,38.2
2022-08-04T15:17:10.081Z,38.2
2022-08-04T15:22:17.195Z,37.1
2022-08-04T15:27:18.224Z,36.1
2022-08-04T15:32:18.511Z,33.6
2022-08-04T15:37:18.714Z,33
2022-08-04T15:42:21.567Z,32.9
2022-08-04T15:47:22.015Z,32.8
2022-08-04T15:52:22.337Z,32.8
2022-08-04T15:57:23.234Z,32.7
2022-08-04T16:02:23.851Z,32.7
2022-08-04T16:07:24.418Z,32.7
2022-08-04T16:12:44.603Z,32.6
2022-08-04T16:17:52.596Z,30.3
2022-08-04T16:22:54.369Z,26.4
2022-08-04T16:27:56.080Z,25.6
2022-08-04T16:32:57.749Z,25.5
2022-08-04T16:37:59.424Z,25.5
2022-08-04T16:43:01.114Z,25.6
2022-08-04T16:48:02.830Z,25.6
2022-08-04T16:53:04.556Z,25.6
2022-08-04T16:58:06.459Z,25.6
2022-08-04T17:03:08.126Z,25.7
2022-08-04T17:08:30.768Z,25.7
2022-08-04T17:14:01.729Z,25.8
2022-08-04T17:19:05.638Z,25.8
2022-08-04T17:24:13.970Z,25.8
2022-08-04T17:29:18.253Z,25.8
2022-08-04T17:34:21.802Z,25.9
2022-08-04T17:39:28.519Z,25.9
2022-08-04T17:44:36.653Z,25.9
2022-08-04T17:49:44.657Z,25.9
2022-08-04T17:54:54.212Z,25.9
2022-08-04T17:59:59.776Z,26
2022-08-04T18:05:06.522Z,26
2022-08-04T18:10:30.352Z,26.1
2022-08-04T18:15:40.668Z,26.1
2022-08-04T18:20:49.946Z,26.1
2022-08-04T18:25:52.340Z,26.1
2022-08-04T18:30:55.102Z,26.1
2022-08-04T18:36:31.784Z,26.2
2022-08-04T18:41:51.500Z,26.2
2022-08-04T18:47:19.833Z,26.2
2022-08-04T18:52:24.817Z,26.2
2022-08-04T18:57:32.881Z,26.2
2022-08-04T19:03:00.427Z,26.3
2022-08-04T19:08:11.721Z,26.3
2022-08-04T19:13:36.509Z,26.3
2022-08-04T19:18:38.202Z,26.3
2022-08-04T19:24:12.023Z,26.3
2022-08-04T19:29:37.084Z,26.3
2022-08-04T19:34:39.229Z,26.4
2022-08-04T19:39:40.949Z,26.4
2022-08-04T19:44:43.129Z,26.4
2022-08-04T19:50:02.680Z,26.4
2022-08-04T19:55:10.181Z,26.4
2022-08-04T20:00:12.904Z,26.4
2022-08-04T20:05:17.042Z,26.4
2022-08-04T20:10:18.753Z,26.5
2022-08-04T20:15:25.652Z,26.5
2022-08-04T20:20:27.372Z,26.5
2022-08-04T20:25:37.071Z,26.5
2022-08-04T20:30:40.468Z,26.6
2022-08-04T20:35:46.060Z,26.6
2022-08-04T20:41:06.970Z,26.6
2022-08-04T20:46:17.935Z,26.6
2022-08-04T20:51:20.426Z,26.6
2022-08-04T20:56:33.311Z,26.6
2022-08-04T21:01:35.034Z,26.6
2022-08-04T21:06:36.987Z,26.6
2022-08-04T21:11:38.700Z,26.6
2022-08-04T21:16:54.415Z,26.7
2022-08-04T21:21:57.446Z,26.7
2022-08-04T21:27:00.461Z,26.7
2022-08-04T21:32:03.373Z,26.7
2022-08-04T21:37:09.222Z,26.7
2022-08-04T21:42:26.529Z,26.8
2022-08-04T21:47:37.444Z,26.8
2022-08-04T21:52:48.465Z,26.8
2022-08-04T21:57:50.842Z,26.8
2022-08-04T22:02:53.099Z,26.8
2022-08-04T22:07:55.535Z,26.8
2022-08-04T22:12:57.230Z,26.8
2022-08-04T22:18:00.323Z,26.8
2022-08-04T22:23:15.616Z,26.8
2022-08-04T22:28:18.763Z,26.9
2022-08-04T22:33:22.704Z,26.9
2022-08-04T22:38:37.166Z,26.9
2022-08-04T22:43:54.722Z,26.9
2022-08-04T22:48:56.914Z,26.9
2022-08-04T22:54:00.210Z,26.9
2022-08-04T22:59:02.101Z,26.9
2022-08-04T23:04:04.493Z,26.9
2022-08-04T23:09:06.202Z,26.9
2022-08-04T23:14:13.482Z,26.9
2022-08-04T23:19:15.633Z,27
2022-08-04T23:24:17.374Z,27
2022-08-04T23:29:20.623Z,27
2022-08-04T23:34:23.332Z,27
2022-08-04T23:39:25.089Z,27
2022-08-04T23:44:43.971Z,27
2022-08-04T23:49:47.682Z,27
2022-08-04T23:54:50.299Z,27.1
2022-08-04T23:59:53.110Z,27.1
